createdAt,value
2018-11-14T00:00:24.669Z,7.90
2018-11-14T00:02:52.841Z,7.90
2018-11-14T00:05:21.033Z,7.90
2018-11-14T00:07:49.161Z,7.90
2018-11-14T00:10:18.030Z,7.90
2018-11-14T00:12:45.753Z,7.90
2018-11-14T00:15:16.280Z,7.90
2018-11-14T00:17:45.565Z,7.90
2018-11-14T00:20:14.093Z,7.80
2018-11-14T00:22:43.261Z,7.80
2018-11-14T00:25:11.399Z,7.70
2018-11-14T00:27:39.605Z,7.70
2018-11-14T00:30:14.732Z,7.70
2018-11-14T00:32:43.222Z,7.70
2018-11-14T00:35:11.906Z,7.60
2018-11-14T00:37:40.405Z,7.60
2018-11-14T00:40:10.181Z,7.60
2018-11-14T00:42:38.549Z,7.50
2018-11-14T00:45:08.502Z,7.50
2018-11-14T00:47:36.705Z,7.50
2018-11-14T00:50:05.413Z,7.50
2018-11-14T00:52:33.612Z,7.50
2018-11-14T00:55:01.786Z,7.50
2018-11-14T00:57:30.045Z,7.60
2018-11-14T00:59:58.263Z,7.60
2018-11-14T01:02:26.449Z,7.60
2018-11-14T01:04:54.649Z,7.60
2018-11-14T01:07:22.855Z,7.60
2018-11-14T01:09:51.032Z,7.60
2018-11-14T01:12:19.182Z,7.50
2018-11-14T01:14:47.349Z,7.40
2018-11-14T01:17:15.571Z,7.30
2018-11-14T01:19:43.697Z,7.20
2018-11-14T01:22:11.892Z,7.10
2018-11-14T01:24:40.093Z,7.00
2018-11-14T01:27:08.337Z,7.00
2018-11-14T01:29:36.409Z,7.00
2018-11-14T01:32:04.853Z,6.90
2018-11-14T01:34:32.997Z,6.90
2018-11-14T01:37:01.196Z,6.80
2018-11-14T01:39:29.366Z,6.90
2018-11-14T01:41:57.533Z,6.90
2018-11-14T01:44:25.701Z,6.90
2018-11-14T01:46:53.866Z,7.00
2018-11-14T01:49:21.985Z,6.90
2018-11-14T01:51:50.736Z,6.90
2018-11-14T01:54:18.893Z,6.90
2018-11-14T01:56:47.058Z,6.90
2018-11-14T01:59:15.205Z,6.90
2018-11-14T02:01:43.373Z,6.80
2018-11-14T02:04:11.550Z,6.80
2018-11-14T02:06:39.725Z,6.80
2018-11-14T02:09:08.829Z,6.80
2018-11-14T02:11:37.055Z,6.90
2018-11-14T02:14:05.783Z,6.90
2018-11-14T02:16:34.206Z,7.00
2018-11-14T02:19:02.377Z,6.90
2018-11-14T02:21:30.518Z,6.80
2018-11-14T02:23:58.675Z,6.60
2018-11-14T02:26:26.841Z,6.60
2018-11-14T02:28:55.026Z,6.50
2018-11-14T02:31:23.199Z,6.40
2018-11-14T02:33:51.325Z,6.30
2018-11-14T02:36:19.677Z,6.30
2018-11-14T02:38:47.820Z,6.30
2018-11-14T02:41:15.954Z,6.30
2018-11-14T02:43:44.109Z,6.20
2018-11-14T02:46:12.318Z,6.20
2018-11-14T02:48:40.490Z,6.30
2018-11-14T02:51:23.841Z,6.30
2018-11-14T02:53:52.001Z,6.40
2018-11-14T02:56:20.174Z,6.40
2018-11-14T02:58:48.301Z,6.20
2018-11-14T03:01:16.487Z,6.20
2018-11-14T03:03:44.728Z,6.00
2018-11-14T03:06:12.866Z,6.00
2018-11-14T03:08:41.065Z,6.00
2018-11-14T03:11:09.630Z,5.90
2018-11-14T03:13:38.010Z,5.90
2018-11-14T03:16:06.351Z,5.80
2018-11-14T03:18:34.549Z,5.80
2018-11-14T03:21:03.057Z,5.80
2018-11-14T03:23:31.257Z,5.70
2018-11-14T03:25:59.595Z,5.70
2018-11-14T03:28:27.846Z,5.70
2018-11-14T03:30:56.159Z,5.60
2018-11-14T03:33:24.370Z,5.60
2018-11-14T03:35:57.901Z,5.60
2018-11-14T03:38:26.095Z,5.70
2018-11-14T03:40:54.249Z,5.70
2018-11-14T03:43:22.406Z,5.70
2018-11-14T03:45:50.576Z,5.70
2018-11-14T03:48:18.765Z,5.70
2018-11-14T03:50:46.918Z,5.70
2018-11-14T03:53:16.001Z,5.70
2018-11-14T03:55:44.141Z,5.70
2018-11-14T03:58:12.435Z,5.70
2018-11-14T04:00:40.620Z,5.70
2018-11-14T04:03:08.753Z,5.70
2018-11-14T04:05:37.173Z,5.70
2018-11-14T04:08:05.900Z,5.80
2018-11-14T04:10:34.069Z,5.90
2018-11-14T04:13:02.285Z,5.90
2018-11-14T04:15:30.443Z,5.90
2018-11-14T04:17:58.658Z,5.90
2018-11-14T04:20:26.841Z,5.80
2018-11-14T04:22:55.041Z,5.80
2018-11-14T04:25:23.215Z,5.70
2018-11-14T04:27:51.402Z,5.70
2018-11-14T04:30:20.814Z,5.70
2018-11-14T04:32:49.046Z,5.60
2018-11-14T04:35:19.385Z,5.60
2018-11-14T04:37:47.585Z,5.70
2018-11-14T04:40:17.810Z,5.60
2018-11-14T04:42:46.045Z,5.60
2018-11-14T04:45:17.942Z,5.50
2018-11-14T04:47:46.156Z,5.40
2018-11-14T04:50:16.541Z,5.40
2018-11-14T04:52:45.673Z,5.30
2018-11-14T04:55:15.241Z,5.30
2018-11-14T04:57:43.927Z,5.30
2018-11-14T05:00:13.213Z,5.30
2018-11-14T05:02:42.358Z,5.20
2018-11-14T05:05:12.829Z,5.20
2018-11-14T05:07:42.094Z,5.20
2018-11-14T05:10:16.581Z,5.20
2018-11-14T05:12:45.010Z,5.20
2018-11-14T05:15:14.438Z,5.30
2018-11-14T05:17:42.907Z,5.30
2018-11-14T05:20:12.554Z,5.30
2018-11-14T05:22:40.913Z,5.30
2018-11-14T05:25:09.278Z,5.30
2018-11-14T05:27:37.501Z,5.30
2018-11-14T05:30:07.957Z,5.30
2018-11-14T05:32:36.110Z,5.30
2018-11-14T05:35:05.546Z,5.30
2018-11-14T05:37:33.752Z,5.30
2018-11-14T05:40:02.030Z,5.20
2018-11-14T05:42:30.086Z,5.20
2018-11-14T05:44:58.273Z,5.10
2018-11-14T05:47:26.415Z,5.10
2018-11-14T05:49:54.586Z,5.10
2018-11-14T05:52:22.789Z,5.10
2018-11-14T05:54:51.058Z,5.10
2018-11-14T05:57:20.053Z,5.10
2018-11-14T05:59:48.213Z,5.20
2018-11-14T06:02:16.389Z,5.30
2018-11-14T06:04:44.560Z,5.30
2018-11-14T06:07:12.813Z,5.30
2018-11-14T06:09:40.941Z,5.40
2018-11-14T06:12:09.122Z,5.30
2018-11-14T06:14:37.269Z,5.30
2018-11-14T06:17:05.501Z,5.40
2018-11-14T06:19:33.613Z,5.50
2018-11-14T06:22:01.974Z,5.50
2018-11-14T06:24:29.989Z,5.40
2018-11-14T06:26:58.194Z,5.40
2018-11-14T06:29:26.429Z,5.40
2018-11-14T06:31:54.646Z,5.40
2018-11-14T06:34:22.814Z,5.40
2018-11-14T06:36:50.970Z,5.40
2018-11-14T06:39:19.126Z,5.30
2018-11-14T06:41:47.628Z,5.20
2018-11-14T06:44:15.749Z,5.30
2018-11-14T06:46:43.883Z,5.30
2018-11-14T06:49:12.083Z,5.30
2018-11-14T06:51:40.350Z,5.20
2018-11-14T06:54:08.570Z,5.20
2018-11-14T06:56:36.845Z,5.30
2018-11-14T06:59:05.133Z,5.40
2018-11-14T07:01:33.302Z,5.30
2018-11-14T07:04:01.784Z,5.20
2018-11-14T07:06:29.975Z,5.20
2018-11-14T07:08:58.197Z,5.30
2018-11-14T07:11:26.397Z,5.30
2018-11-14T07:13:54.565Z,5.40
2018-11-14T07:16:22.833Z,5.40
2018-11-14T07:18:51.049Z,5.40
2018-11-14T07:21:19.217Z,5.50
2018-11-14T07:23:47.491Z,5.50
2018-11-14T07:26:15.634Z,5.60
2018-11-14T07:28:43.806Z,5.60
2018-11-14T07:31:11.978Z,5.70
2018-11-14T07:33:40.114Z,5.70
2018-11-14T07:36:08.355Z,5.70
2018-11-14T07:38:42.208Z,5.80
2018-11-14T07:41:16.047Z,5.90
2018-11-14T07:43:44.719Z,5.90
2018-11-14T07:46:13.493Z,5.80
2018-11-14T07:48:42.072Z,5.90
2018-11-14T07:51:10.448Z,6.00
2018-11-14T07:53:38.756Z,6.00
2018-11-14T07:56:07.202Z,6.10
2018-11-14T07:58:35.482Z,6.10
2018-11-14T08:01:03.647Z,6.00
2018-11-14T08:03:31.829Z,6.00
2018-11-14T08:06:00.051Z,6.00
2018-11-14T08:08:28.258Z,6.00
2018-11-14T08:10:56.401Z,6.00
2018-11-14T08:13:26.669Z,6.10
2018-11-14T08:15:56.572Z,6.30
2018-11-14T08:18:25.064Z,6.40
2018-11-14T08:20:53.382Z,6.30
2018-11-14T08:23:21.529Z,6.30
2018-11-14T08:25:49.793Z,6.40
2018-11-14T08:28:18.289Z,6.40
2018-11-14T08:30:46.888Z,6.40
2018-11-14T08:33:14.931Z,6.30
2018-11-14T08:35:43.113Z,6.30
2018-11-14T08:38:11.669Z,6.40
2018-11-14T08:40:41.355Z,6.40
2018-11-14T08:43:09.530Z,6.50
2018-11-14T08:45:37.750Z,6.50
2018-11-14T08:48:06.209Z,6.60
2018-11-14T08:50:34.413Z,6.60
2018-11-14T08:53:02.721Z,6.60
2018-11-14T08:55:30.901Z,6.70
2018-11-14T08:57:59.077Z,6.70
2018-11-14T09:00:28.004Z,6.60
2018-11-14T09:02:56.189Z,6.60
2018-11-14T09:05:24.391Z,6.70
2018-11-14T09:07:52.659Z,6.60
2018-11-14T09:10:21.993Z,6.50
2018-11-14T09:12:50.167Z,6.70
2018-11-14T09:15:19.469Z,6.80
2018-11-14T09:17:47.729Z,6.90
2018-11-14T09:20:18.083Z,6.90
2018-11-14T09:22:46.491Z,6.90
2018-11-14T09:25:16.682Z,6.90
2018-11-14T09:27:45.466Z,7.00
2018-11-14T09:30:19.601Z,7.00
2018-11-14T09:32:48.275Z,7.00
2018-11-14T09:35:17.830Z,7.10
2018-11-14T09:37:45.985Z,7.10
2018-11-14T09:40:15.773Z,7.20
2018-11-14T09:42:43.954Z,7.20
2018-11-14T09:45:14.481Z,7.30
2018-11-14T09:47:42.826Z,7.30
2018-11-14T09:50:13.890Z,7.30
2018-11-14T09:52:42.570Z,7.40
2018-11-14T09:55:11.444Z,7.40
2018-11-14T09:57:40.349Z,7.50
2018-11-14T10:00:14.470Z,7.50
2018-11-14T10:02:43.213Z,7.50
2018-11-14T10:05:13.889Z,7.50
2018-11-14T10:07:44.149Z,7.60
2018-11-14T10:10:13.689Z,7.60
2018-11-14T10:12:41.877Z,7.60
2018-11-14T10:15:12.525Z,7.60
2018-11-14T10:17:41.280Z,7.70
2018-11-14T10:20:11.505Z,7.70
2018-11-14T10:22:40.293Z,7.80
2018-11-14T10:25:08.814Z,7.80
2018-11-14T10:27:37.778Z,7.80
2018-11-14T10:30:08.800Z,7.90
2018-11-14T10:32:37.371Z,7.90
2018-11-14T10:35:06.596Z,7.90
2018-11-14T10:37:34.777Z,7.90
2018-11-14T10:40:02.942Z,8.00
2018-11-14T10:42:31.136Z,8.00
2018-11-14T10:44:59.372Z,8.00
2018-11-14T10:47:27.556Z,8.10
2018-11-14T10:49:59.456Z,8.10
2018-11-14T10:52:27.630Z,8.10
2018-11-14T10:54:55.781Z,8.10
2018-11-14T10:57:23.981Z,8.10
2018-11-14T10:59:52.231Z,8.10
2018-11-14T11:02:25.809Z,8.20
2018-11-14T11:04:59.342Z,8.20
2018-11-14T11:07:32.942Z,8.20
2018-11-14T11:10:09.251Z,8.30
2018-11-14T11:12:42.874Z,8.40
2018-11-14T11:15:16.445Z,8.40
2018-11-14T11:17:50.125Z,8.40
2018-11-14T11:20:19.089Z,8.40
2018-11-14T11:22:47.262Z,8.50
2018-11-14T11:25:18.123Z,8.50
2018-11-14T11:27:46.306Z,8.50
2018-11-14T11:30:14.457Z,8.50
2018-11-14T11:32:42.671Z,8.60
2018-11-14T11:35:12.773Z,8.60
2018-11-14T11:37:40.932Z,8.70
2018-11-14T11:40:09.469Z,8.70
2018-11-14T11:42:37.621Z,8.70
2018-11-14T11:45:06.419Z,8.70
2018-11-14T11:47:34.597Z,8.70
2018-11-14T11:50:06.329Z,8.70
2018-11-14T11:52:34.527Z,8.70
2018-11-14T11:55:02.684Z,8.70
2018-11-14T11:57:31.029Z,8.80
2018-11-14T11:59:59.219Z,8.80
2018-11-14T12:02:27.311Z,8.80
2018-11-14T12:04:55.455Z,8.80
2018-11-14T12:07:23.609Z,8.90
2018-11-14T12:09:51.774Z,8.90
2018-11-14T12:12:20.005Z,9.00
2018-11-14T12:14:48.233Z,9.00
2018-11-14T12:17:16.433Z,9.00
2018-11-14T12:19:44.890Z,9.00
2018-11-14T12:22:13.090Z,9.00
2018-11-14T12:24:42.185Z,9.00
2018-11-14T12:27:13.142Z,9.00
2018-11-14T12:29:42.527Z,9.00
2018-11-14T12:32:10.696Z,9.00
2018-11-14T12:34:38.999Z,9.00
2018-11-14T12:37:07.106Z,9.00
2018-11-14T12:39:35.342Z,9.00
2018-11-14T12:42:03.489Z,9.00
2018-11-14T12:44:31.683Z,9.00
2018-11-14T12:46:59.856Z,9.00
2018-11-14T12:49:28.243Z,9.10
2018-11-14T12:51:56.398Z,9.10
2018-11-14T12:54:24.560Z,9.10
2018-11-14T12:56:52.766Z,9.10
2018-11-14T12:59:20.984Z,9.20
2018-11-14T13:01:49.121Z,9.20
2018-11-14T13:04:17.270Z,9.20
2018-11-14T13:06:45.449Z,9.20
2018-11-14T13:09:13.720Z,9.20
2018-11-14T13:11:41.882Z,9.20
2018-11-14T13:14:10.046Z,9.20
2018-11-14T13:16:38.157Z,9.20
2018-11-14T13:19:06.317Z,9.30
2018-11-14T13:21:34.485Z,9.30
2018-11-14T13:24:02.657Z,9.30
2018-11-14T13:26:30.825Z,9.30
2018-11-14T13:28:59.254Z,9.20
2018-11-14T13:31:27.391Z,9.20
2018-11-14T13:33:55.540Z,9.20
2018-11-14T13:36:23.721Z,9.20
2018-11-14T13:38:51.882Z,9.30
2018-11-14T13:41:19.995Z,9.30
2018-11-14T13:43:48.158Z,9.30
2018-11-14T13:46:16.313Z,9.30
2018-11-14T13:48:44.495Z,9.40
2018-11-14T13:51:12.933Z,9.40
2018-11-14T13:53:40.854Z,9.40
2018-11-14T13:56:09.006Z,9.40
2018-11-14T13:58:37.158Z,9.40
2018-11-14T14:01:05.381Z,9.40
2018-11-14T14:03:33.530Z,9.40
2018-11-14T14:06:01.716Z,9.40
2018-11-14T14:08:29.944Z,9.40
2018-11-14T14:10:58.081Z,9.40
2018-11-14T14:13:26.253Z,9.30
2018-11-14T14:15:54.429Z,9.40
2018-11-14T14:18:22.573Z,9.40
2018-11-14T14:20:50.771Z,9.50
2018-11-14T14:23:19.065Z,9.40
2018-11-14T14:25:47.218Z,9.40
2018-11-14T14:28:15.401Z,9.50
2018-11-14T14:30:43.623Z,9.50
2018-11-14T14:33:11.778Z,9.50
2018-11-14T14:35:39.933Z,9.50
2018-11-14T14:38:08.155Z,9.50
2018-11-14T14:40:42.728Z,9.50
2018-11-14T14:43:10.912Z,9.60
2018-11-14T14:45:39.244Z,9.60
2018-11-14T14:48:07.626Z,9.60
2018-11-14T14:50:35.772Z,9.60
2018-11-14T14:53:03.965Z,9.60
2018-11-14T14:55:32.135Z,9.50
2018-11-14T14:58:00.301Z,9.50
2018-11-14T15:00:28.793Z,9.40
2018-11-14T15:02:57.109Z,9.40
2018-11-14T15:05:25.628Z,9.40
2018-11-14T15:07:53.789Z,9.40
2018-11-14T15:10:23.270Z,9.40
2018-11-14T15:12:51.397Z,9.40
2018-11-14T15:15:20.060Z,9.40
2018-11-14T15:17:48.458Z,9.40
2018-11-14T15:20:18.873Z,9.40
2018-11-14T15:22:47.074Z,9.40
2018-11-14T15:25:16.769Z,9.40
2018-11-14T15:27:45.552Z,9.40
2018-11-14T15:30:16.698Z,9.40
2018-11-14T15:32:44.847Z,9.40
2018-11-14T15:35:13.581Z,9.40
2018-11-14T15:37:41.682Z,9.40
2018-11-14T15:40:11.965Z,9.40
2018-11-14T15:42:40.153Z,9.40
2018-11-14T15:45:11.623Z,9.40
2018-11-14T15:47:39.845Z,9.30
2018-11-14T15:50:11.189Z,9.30
2018-11-14T15:52:39.589Z,9.30
2018-11-14T15:55:10.199Z,9.40
2018-11-14T15:57:39.371Z,9.30
2018-11-14T16:00:22.619Z,9.40
2018-11-14T16:02:51.148Z,9.40
2018-11-14T16:05:22.948Z,9.40
2018-11-14T16:07:52.386Z,9.30
2018-11-14T16:10:40.564Z,9.30
2018-11-14T16:13:09.545Z,9.30
2018-11-14T16:15:37.961Z,9.20
2018-11-14T16:18:06.269Z,9.20
2018-11-14T16:20:34.479Z,9.20
2018-11-14T16:23:02.642Z,9.20
2018-11-14T16:25:31.483Z,9.20
2018-11-14T16:28:00.881Z,9.20
2018-11-14T16:30:32.243Z,9.30
2018-11-14T16:33:02.880Z,9.30
2018-11-14T16:35:31.187Z,9.20
2018-11-14T16:37:59.398Z,9.20
2018-11-14T16:40:29.802Z,9.20
2018-11-14T16:42:59.009Z,9.10
2018-11-14T16:45:27.358Z,9.10
2018-11-14T16:47:55.613Z,9.10
2018-11-14T16:50:24.194Z,9.10
2018-11-14T16:52:52.414Z,9.10
2018-11-14T16:55:21.575Z,9.10
2018-11-14T16:57:53.700Z,9.10
2018-11-14T17:00:23.209Z,9.10
2018-11-14T17:02:51.444Z,9.00
2018-11-14T17:05:20.220Z,9.10
2018-11-14T17:07:48.584Z,9.10
2018-11-14T17:10:18.273Z,9.10
2018-11-14T17:12:47.365Z,9.10
2018-11-14T17:15:17.142Z,9.00
2018-11-14T17:17:45.261Z,9.00
2018-11-14T17:20:14.682Z,9.00
2018-11-14T17:22:43.352Z,9.00
2018-11-14T17:25:12.452Z,9.00
2018-11-14T17:27:41.129Z,8.90
2018-11-14T17:30:12.576Z,8.90
2018-11-14T17:32:40.946Z,8.90
2018-11-14T17:35:10.137Z,8.90
2018-11-14T17:37:39.038Z,8.90
2018-11-14T17:40:09.993Z,8.90
2018-11-14T17:42:38.682Z,8.90
2018-11-14T17:45:09.184Z,9.00
2018-11-14T17:47:37.651Z,9.00
2018-11-14T17:50:09.622Z,9.00
2018-11-14T17:52:37.785Z,9.00
2018-11-14T17:55:08.642Z,9.00
2018-11-14T17:57:36.883Z,8.90
2018-11-14T18:00:06.714Z,8.90
2018-11-14T18:02:34.921Z,8.90
2018-11-14T18:05:03.061Z,8.90
2018-11-14T18:07:31.233Z,8.90
2018-11-14T18:09:59.374Z,8.90
2018-11-14T18:12:27.621Z,9.00
2018-11-14T18:14:55.998Z,8.90
2018-11-14T18:17:24.159Z,8.90
2018-11-14T18:19:52.385Z,8.80
2018-11-14T18:22:20.538Z,8.80
2018-11-14T18:24:48.729Z,8.80
2018-11-14T18:27:16.933Z,8.80
2018-11-14T18:29:45.078Z,8.80
2018-11-14T18:32:13.282Z,8.90
2018-11-14T18:34:41.467Z,8.80
2018-11-14T18:37:09.646Z,8.80
2018-11-14T18:39:37.982Z,8.80
2018-11-14T18:42:06.039Z,8.80
2018-11-14T18:44:34.219Z,8.80
2018-11-14T18:47:02.404Z,8.80
2018-11-14T18:49:30.605Z,8.80
2018-11-14T18:51:58.986Z,8.90
2018-11-14T18:54:27.106Z,8.90
2018-11-14T18:56:55.306Z,8.80
2018-11-14T18:59:23.470Z,8.80
2018-11-14T19:01:51.732Z,8.80
2018-11-14T19:04:19.953Z,8.80
2018-11-14T19:06:48.922Z,8.70
2018-11-14T19:09:17.013Z,8.80
2018-11-14T19:11:45.201Z,8.80
2018-11-14T19:14:13.458Z,8.70
2018-11-14T19:16:41.604Z,8.80
2018-11-14T19:19:09.861Z,8.70
2018-11-14T19:21:38.286Z,8.70
2018-11-14T19:24:06.490Z,8.70
2018-11-14T19:26:34.734Z,8.60
2018-11-14T19:29:03.006Z,8.60
2018-11-14T19:31:31.186Z,8.60
2018-11-14T19:33:59.450Z,8.50
2018-11-14T19:36:29.494Z,8.40
2018-11-14T19:38:57.697Z,8.30
2018-11-14T19:41:25.905Z,8.10
2018-11-14T19:43:54.061Z,8.10
2018-11-14T19:46:22.270Z,8.00
2018-11-14T19:48:50.679Z,8.00
2018-11-14T19:51:18.853Z,8.00
2018-11-14T19:53:47.047Z,8.00
2018-11-14T19:56:15.249Z,8.00
2018-11-14T19:58:43.429Z,8.00
2018-11-14T20:01:11.629Z,8.00
2018-11-14T20:03:39.777Z,8.00
2018-11-14T20:09:08.350Z,8.00
2018-11-14T20:11:36.513Z,8.00
2018-11-14T20:14:04.726Z,8.00
2018-11-14T20:16:33.002Z,8.00
2018-11-14T20:19:01.215Z,8.00
2018-11-14T20:21:29.373Z,8.10
2018-11-14T20:23:57.605Z,8.10
2018-11-14T20:26:25.737Z,8.10
2018-11-14T20:28:53.850Z,8.10
2018-11-14T20:31:22.082Z,8.10
2018-11-14T20:33:50.177Z,8.20
2018-11-14T20:36:18.545Z,8.20
2018-11-14T20:38:46.701Z,8.30
2018-11-14T20:41:14.887Z,8.30
2018-11-14T20:43:43.385Z,8.30
2018-11-14T20:46:11.585Z,8.40
2018-11-14T20:48:39.788Z,8.30
2018-11-14T20:51:07.950Z,8.30
2018-11-14T20:53:36.117Z,8.40
2018-11-14T20:56:04.269Z,8.40
2018-11-14T20:58:32.434Z,8.40
2018-11-14T21:01:00.595Z,8.40
2018-11-14T21:03:28.786Z,8.50
2018-11-14T21:05:56.958Z,8.50
2018-11-14T21:08:25.096Z,8.50
2018-11-14T21:10:53.258Z,8.60
2018-11-14T21:13:21.466Z,8.60
2018-11-14T21:15:49.621Z,8.60
2018-11-14T21:18:17.806Z,8.60
2018-11-14T21:20:45.967Z,8.60
2018-11-14T21:23:14.338Z,8.70
2018-11-14T21:25:42.473Z,8.70
2018-11-14T21:28:10.629Z,8.70
2018-11-14T21:30:38.785Z,8.70
2018-11-14T21:33:06.945Z,8.70
2018-11-14T21:35:36.257Z,8.70
2018-11-14T21:38:05.944Z,8.70
2018-11-14T21:40:34.062Z,8.80
2018-11-14T21:43:02.247Z,8.80
2018-11-14T21:45:30.793Z,8.80
2018-11-14T21:48:04.413Z,8.80
2018-11-14T21:50:33.077Z,8.80
2018-11-14T21:53:01.301Z,8.80
2018-11-14T21:55:29.446Z,8.80
2018-11-14T21:57:57.653Z,8.70
2018-11-14T22:00:40.817Z,8.70
2018-11-14T22:03:09.829Z,8.70
2018-11-14T22:05:38.317Z,8.60
2018-11-14T22:08:06.493Z,8.70
2018-11-14T22:10:34.645Z,8.70
2018-11-14T22:13:02.773Z,8.70
2018-11-14T22:15:31.438Z,8.70
2018-11-14T22:17:59.596Z,8.60
2018-11-14T22:20:28.252Z,8.60
2018-11-14T22:22:56.407Z,8.60
2018-11-14T22:25:25.537Z,8.60
2018-11-14T22:27:53.717Z,8.60
2018-11-14T22:30:25.362Z,8.70
2018-11-14T22:32:53.530Z,8.60
2018-11-14T22:35:23.149Z,8.60
2018-11-14T22:37:51.207Z,8.70
2018-11-14T22:40:20.776Z,8.70
2018-11-14T22:42:48.949Z,8.70
2018-11-14T22:45:19.417Z,8.70
2018-11-14T22:47:48.018Z,8.80
2018-11-14T22:50:17.612Z,8.80
2018-11-14T22:52:46.310Z,8.80
2018-11-14T22:55:15.578Z,8.80
2018-11-14T22:57:44.446Z,8.80
2018-11-14T23:00:18.868Z,8.90
2018-11-14T23:02:48.297Z,8.80
2018-11-14T23:05:16.790Z,8.80
2018-11-14T23:07:45.274Z,8.90
2018-11-14T23:10:13.445Z,8.90
2018-11-14T23:12:41.607Z,8.90
2018-11-14T23:15:10.094Z,8.90
2018-11-14T23:17:38.367Z,8.90
2018-11-14T23:20:09.449Z,8.90
2018-11-14T23:22:37.897Z,8.90
2018-11-14T23:25:06.566Z,8.90
2018-11-14T23:27:34.737Z,9.00
2018-11-14T23:30:02.897Z,9.00
2018-11-14T23:32:31.196Z,9.00
2018-11-14T23:35:04.774Z,8.90
2018-11-14T23:37:32.954Z,9.00
2018-11-14T23:40:01.126Z,9.00
2018-11-14T23:42:29.289Z,9.00
2018-11-14T23:44:57.485Z,9.00
2018-11-14T23:47:25.633Z,9.00
2018-11-14T23:49:53.841Z,9.00
2018-11-14T23:52:21.997Z,9.00
2018-11-14T23:54:50.269Z,9.00
2018-11-14T23:57:18.449Z,9.00
2018-11-14T23:59:46.618Z,9.00
